Observations for Trim Patrick St
| Time | AQI | Temp °C | Hum % | Pres Pa | CO μg/m³ | H₂S μg/m³ | NO μg/m³ | NO₂ μg/m³ | O₃ μg/m³ | SO₂ μg/m³ | PM1 μg/m³ | PM2.5 μg/m³ | PM10 μg/m³ |
|---|---|---|---|---|---|---|---|---|---|---|---|---|---|
| Thursday 27 August 2026 | |||||||||||||
| 09:04 | 2 | 19.8 | 80 | 38,460 | 0.17 | 0 | 1.24 | 17.66 | 34.42 | 0.54 | 22.57 | 33.18 | 34.74 |
| 09:03 | 2 | 19.7 | 81 | 38,460 | 0.16 | 0 | 1.32 | 13.87 | 27.15 | 0.24 | 20 | 30.34 | 31.89 |
| 09:02 | 2 | 19.7 | 81 | 38,460 | 0.14 | 0 | 1.22 | 11.76 | 37.91 | 0.99 | 21.72 | 31.04 | 32.58 |
| 09:01 | 2 | 19.7 | 81 | 38,460 | 0.15 | 0 | 1.23 | 10.76 | 34.38 | 0.92 | 21.72 | 30.34 | 30.51 |
| 09:00 | 2 | 19.6 | 80 | 38,460 | 0.15 | 0 | 1.33 | 14.94 | 33.66 | 0 | 22.57 | 32.46 | 34.71 |
| 08:59 | 2 | 19.6 | 81 | 38,460 | 0.16 | 0 | 1.22 | 13.54 | 32.03 | 0 | 21.72 | 31.01 | 33.88 |
| 08:58 | 2 | 19.6 | 81 | 38,460 | 0.14 | 0 | 0.91 | 18.02 | 33.38 | 0 | 21.72 | 32.43 | 33.95 |
| 08:57 | 2 | 19.5 | 81 | 38,460 | 0.16 | 0 | 1.35 | 12.21 | 24.41 | 0.5 | 20.86 | 31.69 | 33.16 |
| 08:56 | 2 | 19.5 | 80 | 38,460 | 0.17 | 0 | 1.29 | 18.13 | 33.82 | 0 | 21.72 | 33.16 | 36.09 |
| 08:55 | 2 | 19.5 | 81 | 38,460 | 0.17 | 0 | 1.51 | 9.39 | 36.8 | 0.89 | 22.57 | 30.97 | 32.41 |
| 08:54 | 2 | 19.4 | 81 | 38,460 | 0.15 | 0 | 1.7 | 10.72 | 34.19 | 0 | 22.57 | 30.98 | 31.08 |
| 08:53 | 2 | 19.5 | 81 | 38,460 | 0.17 | 0 | 1.85 | 12.84 | 35.79 | 0 | 23.43 | 31.66 | 32.41 |
| 08:52 | 2 | 19.4 | 81 | 38,460 | 0.18 | 0 | 1.41 | 19.34 | 28.19 | 0 | 23.43 | 33.79 | 38.65 |
| 08:51 | 2 | 19.4 | 81 | 38,460 | 0.18 | 0 | 1.5 | 23.66 | 21.56 | 0.03 | 21.72 | 33.71 | 35.72 |
| 08:50 | 2 | 19.3 | 82 | 38,460 | 0.2 | 0 | 1.29 | 21.88 | 34.35 | 0 | 21.72 | 32.24 | 36.22 |
| 08:48 | 2 | 19.3 | 82 | 38,460 | 0.17 | 0 | 1.44 | 18.24 | 35.51 | 0 | 24.29 | 33.65 | 35.58 |
| 08:46 | 2 | 19.2 | 82 | 38,460 | 0.17 | 0 | 2.03 | 15.89 | 34.92 | 0 | 25.14 | 34.98 | 37.46 |
| 08:45 | 2 | 19.1 | 82 | 38,460 | 0.18 | 0 | 2.04 | 15.02 | 33.26 | 0 | 23.43 | 32.86 | 35.36 |
| 08:44 | 2 | 19.1 | 82 | 38,460 | 0.25 | 0.82 | 2.88 | 20.63 | 33.14 | 0 | 25.14 | 34.24 | 38.02 |
| 08:42 | 2 | 19 | 83 | 38,460 | 0.2 | 1.66 | 1.22 | 37.38 | 25.92 | 0.4 | 26 | 34.89 | 38.57 |